SFN weather

Sauce Viejo Airport
Santa Fe, Santa Fe Province, Argentina

Public forecast

Using degrees Celsius for public forecast. Weather courtesy of forecast.io.

METAR (pilot weather report)

Report is more than 6 hours old.

Retrieved 2019/08/18 14:11 UTC (23 hours ago):

SAAV 181411Z 15013KT 9000 BKN011 12/09 Q1024

TAF (pilot weather forecast)

Forecast is more than 12 hours old.

Retrieved 2019/05/26 00:44 UTC (3 months ago):

TAF SAAV 262300Z 2700/2724 VRB03KT CAVOK TX18/2718Z TN11/2709Z BECMG 2704/2706 5000 BR BKN015 BKN200 PROB30 2707/2712 0900 FG BECMG 2712/2714 14005KT CAVOK